Terminal Aerodrome Forecast
Issued by NWS Portland, OR

Home | Current Version | Previous Version | Text Only | Print | Product List | Glossary On
Versions: 1 2 3 4 5 6 7 8 9 10 11 12 13 14 15 16 17 18 19 20 21 22 23 24 25 26 27 28 29 30 31 32 33 34 35 36
000
FTUS46 KPQR 011014 AAD
TAFSLE
TAF AMD
KSLE 011014Z 0110/0206 21011KT P6SM -RA VCTS SCT050CB
     FM011200 01004KT P6SM SCT100
     FM011700 35011KT P6SM SKC
     FM012000 32011G22KT P6SM SKC=

USA.gov is the U.S. government's official web portal to all federal, state and local government web resources and services.